Terminal Aerodrome Forecast
Issued by NWS

Home | Current Version | Previous Version | Text Only | Print | Product List | Glossary On
Versions: 1 2 3 4 5 6 7 8 9 10 11 12 13 14
000
FTUS44 KBMX 310520
TAFTOI
TAF
KTOI 310520Z 3106/0106 00000KT P6SM SKC
      TEMPO 3109/3112 4SM BR
     FM311500 35008KT P6SM SCT040
     FM311900 02010KT P6SM VCTS SCT040CB=

USA.gov is the U.S. government's official web portal to all federal, state and local government web resources and services.